ADDS METAR Data INFO
IDs: Format: Raw Decoded Include TAF

Data at: 1148 UTC 23 Jun 2018

KFKA 231135Z AUTO 00000KT 7SM CLR 16/15 A2980 RMK AO2 T01560147
KFKA 231115Z AUTO 32003KT 7SM CLR 15/14 A2980 RMK AO2 T01520143
KFKA 231055Z AUTO 33003KT 7SM CLR 15/14 A2980 RMK AO2 T01530144
KFKA 231035Z AUTO 32004KT 5SM BR CLR 16/15 A2980 RMK AO2 T01550146
KFKA 231015Z AUTO 00000KT 7SM CLR 16/15 A2980 RMK AO2 T01560146
KFKA 230955Z AUTO 00000KT 10SM CLR 16/15 A2980 RMK AO2 T01600151
KFKA 230935Z AUTO 00000KT 7SM CLR 16/15 A2980 RMK AO2 T01600147
KFKA 230915Z AUTO 00000KT 10SM CLR 16/15 A2980 RMK AO2 T01640151
KFKA 230855Z AUTO 00000KT 7SM CLR 17/15 A2980 RMK AO2 T01650150
KFKA 230835Z AUTO 00000KT 10SM CLR 17/15 A2980 RMK AO2 T01700152
KFKA 230815Z AUTO 00000KT 10SM SCT120 17/15 A2982 RMK AO2 T01670152
KFKA 230755Z AUTO 00000KT 10SM OVC120 17/15 A2984 RMK AO2 T01650152
KFKA 230735Z AUTO 19003KT 10SM OVC120 17/15 A2984 RMK AO2 T01680152
KFKA 230716Z AUTO 00000KT 10SM OVC120 18/15 A2984 RMK AO2 T01780153
KFKA 230655Z AUTO 27003KT 10SM SCT047 SCT060 OVC110 17/15 A2985 RMK AO2 T01720153
KFKA 230635Z AUTO 28004KT 10SM SCT047 BKN060 OVC110 18/15 A2985 RMK AO2 LTG DSNT W T01760152
KFKA 230615Z AUTO 28005KT 10SM BKN045 OVC110 17/15 A2984 RMK AO2 T01730153
KFKA 230555Z AUTO 27005KT 10SM BKN043 17/15 A2984 RMK AO2 T01670150 10230 20160 402340138
KFKA 230535Z AUTO 00000KT 10SM CLR 17/14 A2982 RMK AO2 T01690144
KFKA 230515Z AUTO 00000KT 7SM CLR 18/15 A2982 RMK AO2 T01760154
KFKA 230455Z AUTO 27003KT 10SM CLR 18/16 A2982 RMK AO2 T01750159
KFKA 230435Z AUTO 00000KT 10SM CLR 19/16 A2981 RMK AO2 T01850156
KFKA 230415Z AUTO 11003KT 7SM CLR 18/16 A2981 RMK AO2 T01760161
KFKA 230355Z AUTO 00000KT 10SM CLR 19/16 A2981 RMK AO2 T01850162
KFKA 230335Z AUTO 00000KT 10SM CLR 19/16 A2981 RMK AO2 T01890164
KFKA 230315Z AUTO 00000KT 10SM CLR 20/16 A2981 RMK AO2 T01960162
KFKA 230255Z AUTO 00000KT 10SM CLR 20/16 A2981 RMK AO2 T02000162
KFKA 230235Z AUTO 00000KT 10SM CLR 20/16 A2981 RMK AO2 T02000164
KFKA 230215Z AUTO 00000KT 10SM CLR 20/17 A2981 RMK AO2 T01960170
KFKA 230155Z AUTO 00000KT 7SM CLR 21/16 A2981 RMK AO2 T02130158
KFKA 230136Z AUTO 00000KT 10SM CLR 22/16 A2981 RMK AO2 T02190158
KFKA 230115Z AUTO 00000KT 10SM CLR 22/17 A2981 RMK AO2 T02150166
KFKA 230055Z AUTO 00000KT 10SM CLR 21/17 A2981 RMK AO2 T02140168
KFKA 230035Z AUTO 00000KT 10SM CLR 22/17 A2982 RMK AO2 T02230166
KFKA 230015Z AUTO 00000KT 10SM CLR 23/17 A2982 RMK AO2 T02250165
KFKA 222355Z AUTO 00000KT 10SM CLR 23/15 A2983 RMK AO2 T02300152 10234 20215
KFKA 222335Z AUTO 09004KT 10SM CLR 23/15 A2983 RMK AO2 T02290154
KFKA 222315Z AUTO 05004KT 10SM CLR 23/16 A2983 RMK AO2 T02250161
KFKA 222255Z AUTO 05006KT 10SM CLR 23/16 A2984 RMK AO2 T02290155
KFKA 222235Z AUTO 05005KT 10SM CLR 23/15 A2984 RMK AO2 T02330152
KFKA 222215Z AUTO 04005KT 10SM CLR 23/15 A2985 RMK AO2 T02280148
KFKA 222155Z AUTO 04006KT 10SM CLR 22/15 A2985 RMK AO2 T02200154
KFKA 222135Z AUTO 01006KT 10SM CLR 22/15 A2985 RMK AO2 T02230152
KFKA 222115Z AUTO 04003KT 10SM CLR 23/16 A2986 RMK AO2 T02260158
KFKA 222055Z AUTO 03007KT 7SM CLR 22/15 A2986 RMK AO2 T02150149
KFKA 222035Z AUTO 04004KT 10SM CLR 22/15 A2986 RMK AO2 T02180150
KFKA 222015Z AUTO 04007KT 10SM CLR 22/15 A2986 RMK AO2 T02210146
KFKA 221955Z AUTO 02005KT 7SM CLR 23/15 A2987 RMK AO2 T02250153
KFKA 221935Z AUTO 03005KT 10SM CLR 22/15 A2987 RMK AO2 T02240150
KFKA 221915Z AUTO 05005KT 10SM CLR 23/14 A2987 RMK AO2 T02250143
KFKA 221855Z AUTO 11006KT 10SM CLR 23/14 A2987 RMK AO2 T02300141
KFKA 221835Z AUTO 11008KT 10SM CLR 23/14 A2988 RMK AO2 T02320137
KFKA 221815Z AUTO 05006KT 10SM CLR 23/15 A2988 RMK AO2 T02260149
KFKA 221755Z AUTO 06008KT 10SM CLR 23/15 A2988 RMK AO2 T02270151 10230 20142
KFKA 221735Z AUTO 06007KT 10SM CLR 23/15 A2989 RMK AO2 T02280153
KFKA 221715Z AUTO 04005KT 10SM SCT120 23/16 A2989 RMK AO2 T02250160
KFKA 221655Z AUTO 05006KT 10SM SCT120 22/15 A2990 RMK AO2 T02170154
KFKA 221635Z AUTO 03005KT 10SM SCT120 21/16 A2990 RMK AO2 T02110156
KFKA 221615Z AUTO 01004KT 10SM CLR 21/16 A2990 RMK AO2 T02110163
KFKA 221555Z AUTO 02006KT 10SM CLR 21/16 A2990 RMK AO2 T02060158
KFKA 221535Z AUTO 36006KT 10SM CLR 21/16 A2990 RMK AO2 T02050158
KFKA 221515Z AUTO 02005KT 10SM CLR 20/16 A2990 RMK AO2 T02000157
KFKA 221455Z AUTO 01003KT 10SM SCT010 19/16 A2990 RMK AO2 T01910158
KFKA 221435Z AUTO 36005KT 10SM SCT010 SCT043 19/16 A2991 RMK AO2 T01880155
KFKA 221415Z AUTO 05005KT 10SM SCT010 19/15 A2991 RMK AO2 T01850151
KFKA 221355Z AUTO 03003KT 7SM SCT008 18/15 A2991 RMK AO2 T01800150
KFKA 221335Z AUTO 02003KT 7SM SCT006 17/15 A2991 RMK AO2 T01690147
KFKA 221315Z AUTO 02004KT 7SM BKN006 16/14 A2992 RMK AO2 T01600139
KFKA 221255Z AUTO 01004KT 10SM SCT008 15/13 A2991 RMK AO2 T01530132
KFKA 221235Z AUTO 36003KT 10SM CLR 15/13 A2992 RMK AO2 T01500129
KFKA 221215Z AUTO 36003KT 10SM CLR 15/13 A2992 RMK AO2 T01450125
KFKA 221155Z AUTO 36003KT 7SM SCT047 14/13 A2992 RMK AO2 60001 70024 T01420125 10142 20138
KFKA 221135Z AUTO 36003KT 7SM SCT041 BKN047 14/13 A2992 RMK AO2 T01410125
KFKA 221115Z AUTO 35004KT 10SM SCT041 14/12 A2992 RMK AO2 T01400122
KFKA 221055Z AUTO 35005KT 10SM CLR 14/12 A2991 RMK AO2 T01400122
KFKA 221035Z AUTO 34006KT 10SM SCT050 14/12 A2991 RMK AO2 T01400123
KFKA 221015Z AUTO 35005KT 10SM SCT050 14/12 A2991 RMK AO2 T01390124
KFKA 220955Z AUTO 35006KT 10SM SCT050 14/12 A2990 RMK AO2 T01390124
KFKA 220935Z AUTO 34006KT 10SM SCT050 14/12 A2990 RMK AO2 T01400124
KFKA 220915Z AUTO 34005KT 10SM CLR 14/12 A2989 RMK AO2 T01400124
KFKA 220855Z AUTO 35005KT 10SM CLR 14/13 A2989 RMK AO2 60001 T01400125
KFKA 220835Z AUTO 35005KT 10SM CLR 14/13 A2989 RMK AO2 T01400126
KFKA 220815Z AUTO 34005KT 10SM SCT100 14/13 A2989 RMK AO2 T01400128
KFKA 220755Z AUTO 34005KT 10SM SCT041 BKN100 14/13 A2989 RMK AO2 T01400130
KFKA 220735Z AUTO 34004KT 10SM SCT043 SCT085 OVC110 14/13 A2989 RMK AO2 T01400128
KFKA 220715Z AUTO 33004KT 7SM OVC110 14/13 A2990 RMK AO2 T01400130
KFKA 220655Z AUTO 00000KT 10SM BKN110 14/13 A2991 RMK AO2 P0001 T01410130
KFKA 220635Z AUTO 00000KT 10SM BKN100 14/13 A2991 RMK AO2 T01410130
KFKA 220615Z AUTO 33003KT 10SM SCT090 BKN120 14/13 A2991 RMK AO2 T01400129
KFKA 220555Z AUTO 00000KT 7SM SCT080 OVC110 14/13 A2992 RMK AO2 60003 T01420130 10165 20140 401780140
KFKA 220535Z AUTO 00000KT 10SM SCT029 BKN080 OVC110 14/13 A2992 RMK AO2 T01410130
KFKA 220515Z AUTO 00000KT 10SM SCT031 BKN060 OVC080 14/13 A2992 RMK AO2 T01430132
KFKA 220455Z AUTO 00000KT 10SM SCT060 BKN080 OVC110 14/13 A2993 RMK AO2 T01410129
KFKA 220435Z AUTO 00000KT 10SM SCT055 BKN100 OVC120 14/13 A2993 RMK AO2 T01400130
KFKA 220415Z AUTO 00000KT 7SM OVC100 14/13 A2993 RMK AO2 T01400130
KFKA 220355Z AUTO 34003KT 10SM SCT030 OVC100 14/13 A2993 RMK AO2 T01400130
KFKA 220335Z AUTO 00000KT 10SM OVC100 14/13 A2993 RMK AO2 T01410131
KFKA 220315Z AUTO 00000KT 10SM OVC100 14/13 A2992 RMK AO2 T01400130
KFKA 220255Z AUTO 00000KT 10SM OVC100 14/13 A2992 RMK AO2 60003 T01400130
KFKA 220235Z AUTO 00000KT 10SM SCT065 OVC100 14/13 A2991 RMK AO2 T01410130
KFKA 220215Z AUTO 00000KT 10SM -DZ SCT035 BKN060 OVC075 14/13 A2991 RMK AO2 T01430130
KFKA 220155Z AUTO 00000KT 5SM -DZ OVC060 14/13 A2991 RMK AO2 P0003 T01420125
KFKA 220135Z AUTO 16003KT 5SM -RA OVC050 14/13 A2990 RMK AO2 P0002 T01440125
KFKA 220115Z AUTO 00000KT 4SM -RA OVC050 15/12 A2990 RMK AO2 P0001 T01480121
KFKA 220055Z AUTO 08005KT 7SM -RA OVC050 16/13 A2991 RMK AO2 T01550125
KFKA 220035Z AUTO 07004KT 7SM -RA OVC050 16/13 A2990 RMK AO2 T01590126
KFKA 220015Z AUTO 09007G14KT 10SM OVC050 16/12 A2990 RMK AO2 T01640122
KFKA 212355Z AUTO 08007KT 10SM OVC049 17/13 A2990 RMK AO2 60002 T01650129 10172 20150